Terminal Aerodrome Forecast
Issued by NWS

Home | Current Version | Previous Version | Text Only | Print | Product List | Glossary On
Versions: 1 2 3 4 5 6 7 8 9 10 11 12 13 14 15 16
000
FTUS45 KRIW 202300
TAFJAC
TAF
KJAC 202320Z 2100/2124 16006KT P6SM SKC
     FM210200 36007KT P6SM SKC
     FM211300 18005KT P6SM SKC
     FM212100 20008KT P6SM VCSH SCT060 BKN100
      AMD LTD TO CLD VIS AND WIND=

USA.gov is the U.S. government's official web portal to all federal, state and local government web resources and services.